Time;durP1;ratioP1;P1;durP2;ratioP2;P2;SDS_P1;SDS_P2;PMS_P1;PMS_P2;Temp;Humidity;BMP_temperature;BMP_pressure;BME280_temperature;BME280_humidity;BME280_pressure;Samples;Min_cycle;Max_cycle;Signal;HPM_P1;HPM_P2
2023/03/16 00:00:45;;;;;;;10.60;3.17;;;2.10;99.90;;;;;;5059515;28;20411;-20
2023/03/16 00:03:17;;;;;;;5.37;2.33;;;2.20;99.90;;;;;;5058077;28;20075;-20
2023/03/16 00:05:48;;;;;;;6.23;1.73;;;2.20;99.90;;;;;;5055284;28;20475;-20
2023/03/16 00:08:14;;;;;;;9.03;2.40;;;2.20;99.90;;;;;;5056890;28;20048;-20
2023/03/16 00:10:45;;;;;;;6.97;1.30;;;2.30;99.90;;;;;;5056064;28;20041;-20
2023/03/16 00:13:16;;;;;;;5.53;1.73;;;2.20;99.90;;;;;;5056402;28;20537;-20
2023/03/16 00:15:53;;;;;;;6.30;1.60;;;2.30;99.90;;;;;;5056619;28;20084;-20
2023/03/16 00:18:19;;;;;;;4.40;1.50;;;2.30;99.90;;;;;;5059260;28;20072;-20
2023/03/16 00:20:50;;;;;;;6.05;1.63;;;2.30;99.90;;;;;;5056671;28;20194;-20
2023/03/16 00:23:16;;;;;;;5.00;1.80;;;2.40;99.90;;;;;;5068085;28;20040;-19
2023/03/16 00:25:42;;;;;;;9.27;2.47;;;2.30;99.90;;;;;;5075879;28;20486;-20
2023/03/16 00:28:08;;;;;;;9.50;3.73;;;2.40;99.90;;;;;;5074641;28;20123;-20
2023/03/16 00:30:33;;;;;;;5.83;2.30;;;2.30;99.90;;;;;;5058673;28;20060;-20
2023/03/16 00:33:00;;;;;;;5.10;1.80;;;2.30;99.90;;;;;;5038170;28;20129;-20
2023/03/16 00:35:26;;;;;;;5.80;1.83;;;2.20;99.90;;;;;;5056214;28;20383;-20
2023/03/16 00:37:56;;;;;;;7.77;1.60;;;2.20;99.90;;;;;;5057808;28;20049;-20
2023/03/16 00:40:22;;;;;;;5.17;1.90;;;2.20;99.90;;;;;;5057462;28;20041;-19
2023/03/16 00:42:48;;;;;;;5.30;1.63;;;2.20;99.90;;;;;;5055505;28;20502;-20
2023/03/16 00:45:14;;;;;;;8.65;4.15;;;2.30;99.90;;;;;;5037922;28;20049;-20
2023/03/16 00:47:41;;;;;;;8.30;2.37;;;2.30;99.90;;;;;;5054140;28;20044;-20
2023/03/16 00:50:07;;;;;;;6.35;1.88;;;2.50;99.90;;;;;;5055063;28;20522;-20
2023/03/16 00:52:34;;;;;;;5.20;1.98;;;2.60;99.90;;;;;;5062209;28;20048;-19
2023/03/16 00:55:02;;;;;;;4.73;2.00;;;2.60;99.90;;;;;;5059513;28;20045;-20
2023/03/16 00:57:29;;;;;;;5.73;2.10;;;2.70;99.90;;;;;;5054951;28;20049;-20
2023/03/16 00:59:55;;;;;;;7.03;1.93;;;2.70;99.90;;;;;;5055175;28;20040;-20
2023/03/16 01:02:23;;;;;;;6.97;1.67;;;2.70;99.90;;;;;;5054534;28;20407;-20
2023/03/16 01:04:50;;;;;;;4.13;1.40;;;2.80;99.90;;;;;;5055106;28;20514;-20
2023/03/16 01:07:16;;;;;;;6.43;1.60;;;2.80;99.90;;;;;;5055069;28;20045;-20
2023/03/16 01:09:42;;;;;;;4.50;1.50;;;2.80;99.90;;;;;;5054912;28;20053;-20
2023/03/16 01:12:14;;;;;;;5.18;1.55;;;2.80;99.90;;;;;;5054968;28;20053;-20
2023/03/16 01:14:41;;;;;;;7.97;2.40;;;2.80;99.90;;;;;;5054790;28;20052;-20
2023/03/16 01:17:08;;;;;;;6.60;1.83;;;2.80;99.90;;;;;;5054904;28;20049;-20
2023/03/16 01:19:36;;;;;;;4.35;1.83;;;2.80;99.90;;;;;;5054719;28;20047;-20
2023/03/16 01:22:03;;;;;;;4.65;1.88;;;2.90;99.90;;;;;;5054788;28;20077;-20
2023/03/16 01:24:30;;;;;;;6.22;1.85;;;2.90;99.90;;;;;;5055694;28;20055;-20
2023/03/16 01:26:56;;;;;;;7.23;2.03;;;2.90;99.90;;;;;;5054737;28;20051;-20
2023/03/16 01:29:22;;;;;;;7.13;2.17;;;3.00;99.90;;;;;;5054330;28;20045;-20
2023/03/16 01:31:50;;;;;;;5.50;1.90;;;3.10;99.90;;;;;;5053676;28;20123;-20
2023/03/16 01:34:17;;;;;;;8.20;2.38;;;3.00;99.90;;;;;;5054522;28;20051;-19
2023/03/16 01:36:47;;;;;;;5.17;2.07;;;3.00;99.90;;;;;;5053498;28;20056;-20
2023/03/16 01:39:14;;;;;;;5.70;2.40;;;3.00;99.90;;;;;;5065346;28;20048;-20
2023/03/16 01:41:41;;;;;;;6.00;1.88;;;3.00;99.90;;;;;;5074688;28;20056;-20
2023/03/16 01:44:21;;;;;;;10.80;2.97;;;3.00;99.90;;;;;;5075148;28;20436;-20
2023/03/16 01:46:47;;;;;;;5.40;2.00;;;3.00;99.90;;;;;;5075171;28;20403;-20
2023/03/16 01:49:24;;;;;;;5.33;2.17;;;3.00;99.90;;;;;;5074496;28;20049;-20
2023/03/16 01:51:58;;;;;;;6.07;2.17;;;2.90;99.90;;;;;;5074233;28;20075;-20
2023/03/16 01:54:41;;;;;;;6.50;2.38;;;2.90;99.90;;;;;;5068912;28;20076;-20
2023/03/16 01:57:19;;;;;;;6.15;2.13;;;2.80;99.90;;;;;;5056463;28;20486;-20
2023/03/16 01:59:57;;;;;;;4.82;1.88;;;2.80;99.90;;;;;;5073586;28;20382;-20
2023/03/16 02:02:28;;;;;;;8.47;2.63;;;2.70;99.90;;;;;;5055309;28;20041;-20
2023/03/16 02:05:37;;;;;;;6.43;1.97;;;2.70;99.90;;;;;;5053698;28;20106;-20
2023/03/16 02:08:05;;;;;;;6.67;2.37;;;2.70;99.90;;;;;;5054749;28;20045;-20
2023/03/16 02:10:32;;;;;;;4.90;2.13;;;2.60;99.90;;;;;;5053808;28;20110;-20
2023/03/16 02:12:58;;;;;;;6.47;2.65;;;2.60;99.90;;;;;;5053817;28;20084;-20
2023/03/16 02:15:26;;;;;;;8.93;2.70;;;2.70;99.90;;;;;;5058551;28;20078;-20
2023/03/16 02:17:51;;;;;;;8.77;2.83;;;2.70;99.90;;;;;;5056421;28;20534;-20
2023/03/16 02:20:41;;;;;;;9.50;3.50;;;2.70;99.90;;;;;;5073697;28;20124;-20
2023/03/16 02:23:17;;;;;;;7.80;2.30;;;2.80;99.90;;;;;;5070144;28;20045;-20
2023/03/16 02:26:05;;;;;;;7.50;2.80;;;2.80;99.90;;;;;;5072460;28;20087;-20
2023/03/16 02:28:47;;;;;;;8.47;2.70;;;2.90;99.90;;;;;;5071965;28;20375;-20
2023/03/16 02:31:17;;;;;;;7.93;2.73;;;3.00;99.90;;;;;;5072400;28;20426;-20
2023/03/16 02:33:43;;;;;;;5.75;2.30;;;3.00;99.90;;;;;;5058314;28;20052;-20
2023/03/16 02:36:10;;;;;;;7.95;2.58;;;3.10;99.90;;;;;;5053535;28;20051;-20
2023/03/16 02:38:36;;;;;;;8.50;3.37;;;3.20;99.90;;;;;;5035967;28;20044;-20
2023/03/16 02:41:17;;;;;;;5.30;2.33;;;3.20;99.90;;;;;;5055064;28;20091;-20
2023/03/16 02:44:00;;;;;;;3.63;2.30;;;3.10;99.90;;;;;;5052881;28;20056;-19
2023/03/16 02:46:27;;;;;;;9.88;2.65;;;3.20;99.90;;;;;;5057701;28;20049;-20
2023/03/16 02:49:06;;;;;;;5.25;2.63;;;3.30;99.90;;;;;;5052492;28;20084;-20
2023/03/16 02:51:32;;;;;;;5.68;2.63;;;3.30;99.90;;;;;;5053498;28;20127;-20
2023/03/16 02:53:58;;;;;;;7.22;2.63;;;3.30;99.90;;;;;;5054244;28;20125;-20
2023/03/16 02:56:23;;;;;;;7.60;2.50;;;3.30;99.90;;;;;;5058921;28;20390;-20
2023/03/16 02:58:49;;;;;;;7.05;2.92;;;3.30;99.90;;;;;;5065232;28;20443;-19
2023/03/16 03:01:15;;;;;;;6.10;3.00;;;3.40;99.90;;;;;;5053292;28;20041;-20
2023/03/16 03:03:42;;;;;;;11.10;3.00;;;3.30;99.90;;;;;;5053365;28;20044;-20
2023/03/16 03:06:08;;;;;;;5.43;2.85;;;3.30;99.90;;;;;;5053306;28;20103;-20
2023/03/16 03:08:34;;;;;;;7.25;3.20;;;3.40;99.90;;;;;;5053572;28;20124;-20
2023/03/16 03:11:00;;;;;;;5.90;2.95;;;3.40;99.90;;;;;;5052171;28;20129;-20
2023/03/16 03:13:26;;;;;;;6.90;2.78;;;3.30;99.90;;;;;;5055804;28;20041;-20
2023/03/16 03:15:52;;;;;;;7.03;3.13;;;3.40;99.90;;;;;;5053252;28;20495;-20
2023/03/16 03:18:18;;;;;;;10.05;3.05;;;3.30;99.90;;;;;;5056711;28;20486;-20
2023/03/16 03:20:44;;;;;;;6.85;3.03;;;3.30;99.90;;;;;;5057578;28;20045;-20
2023/03/16 03:23:09;;;;;;;7.82;3.05;;;3.40;99.90;;;;;;5057058;28;20122;-20
2023/03/16 03:25:35;;;;;;;8.57;3.45;;;3.40;99.90;;;;;;5057533;28;20053;-20
2023/03/16 03:28:04;;;;;;;5.95;3.10;;;3.40;99.90;;;;;;5063850;28;20174;-19
2023/03/16 03:30:31;;;;;;;7.15;3.20;;;3.40;99.90;;;;;;5077052;28;20056;-20
2023/03/16 03:32:57;;;;;;;9.60;3.80;;;3.40;99.90;;;;;;5076819;28;20052;-20
2023/03/16 03:35:23;;;;;;;7.35;3.58;;;3.40;99.90;;;;;;5076801;28;20119;-20
2023/03/16 03:37:49;;;;;;;11.07;4.10;;;3.40;99.90;;;;;;5075614;28;20040;-20
2023/03/16 03:40:18;;;;;;;6.20;3.60;;;3.40;99.90;;;;;;5076608;28;20055;-20
2023/03/16 03:42:44;;;;;;;13.70;4.25;;;3.40;99.90;;;;;;5070431;28;20083;-20
2023/03/16 03:45:11;;;;;;;8.20;4.13;;;3.40;99.90;;;;;;5076590;28;20110;-20
2023/03/16 03:47:38;;;;;;;7.00;3.70;;;3.40;99.90;;;;;;5076587;28;20044;-20
2023/03/16 03:50:05;;;;;;;6.78;3.55;;;3.40;99.90;;;;;;5076769;28;20036;-20
2023/03/16 03:52:30;;;;;;;8.10;3.80;;;3.50;99.90;;;;;;5075455;28;20048;-20
2023/03/16 03:54:56;;;;;;;7.70;3.40;;;3.50;99.90;;;;;;5076994;28;20055;-20
2023/03/16 03:57:22;;;;;;;10.13;3.85;;;3.50;99.90;;;;;;5071386;28;20072;-20
2023/03/16 03:59:48;;;;;;;10.85;3.95;;;3.50;99.90;;;;;;5056101;28;20047;-20
2023/03/16 04:02:14;;;;;;;6.00;3.17;;;3.50;99.90;;;;;;5056338;28;20458;-20
2023/03/16 04:04:41;;;;;;;10.07;3.85;;;3.60;99.90;;;;;;5056257;28;20131;-20
2023/03/16 04:07:07;;;;;;;10.60;4.38;;;3.50;99.90;;;;;;5057050;28;20048;-20
2023/03/16 04:09:33;;;;;;;7.70;4.25;;;3.60;99.90;;;;;;5055559;28;20044;-20
2023/03/16 04:12:04;;;;;;;7.60;3.70;;;3.60;99.90;;;;;;5039500;28;20070;-20
2023/03/16 04:14:30;;;;;;;8.65;4.30;;;3.60;99.90;;;;;;5055773;28;20054;-20
2023/03/16 04:16:56;;;;;;;10.85;3.50;;;3.60;99.90;;;;;;5055995;28;20475;-20
2023/03/16 04:19:23;;;;;;;6.17;3.87;;;3.60;99.90;;;;;;5055891;28;20099;-20
2023/03/16 04:21:50;;;;;;;11.57;4.07;;;3.60;99.90;;;;;;5056481;28;20052;-20
2023/03/16 04:24:16;;;;;;;9.32;3.92;;;3.60;99.90;;;;;;5069685;28;20079;-20
2023/03/16 04:26:43;;;;;;;6.28;3.63;;;3.60;99.90;;;;;;5075799;28;20044;-20
2023/03/16 04:29:11;;;;;;;7.20;3.90;;;3.70;99.90;;;;;;5074155;28;20499;-20
2023/03/16 04:31:37;;;;;;;14.00;5.40;;;3.70;99.90;;;;;;5066487;28;20044;-20
2023/03/16 04:34:03;;;;;;;8.23;3.78;;;3.80;99.90;;;;;;5058290;28;20483;-20
2023/03/16 04:36:28;;;;;;;8.43;3.92;;;3.70;99.90;;;;;;5058606;28;20060;-20
2023/03/16 04:38:54;;;;;;;7.70;3.33;;;3.70;99.90;;;;;;5054452;28;20055;-20
2023/03/16 04:41:20;;;;;;;8.93;3.65;;;3.70;99.90;;;;;;5055674;28;20044;-20
2023/03/16 04:43:46;;;;;;;8.67;3.57;;;3.70;99.90;;;;;;5058689;28;20055;-20
2023/03/16 04:46:12;;;;;;;8.43;3.58;;;3.70;99.90;;;;;;5055525;28;20044;-20
2023/03/16 04:48:38;;;;;;;8.60;3.93;;;3.70;99.90;;;;;;5054349;28;20368;-20
2023/03/16 04:51:04;;;;;;;9.38;3.80;;;3.70;99.90;;;;;;5054277;28;20082;-20
2023/03/16 04:53:31;;;;;;;9.18;3.38;;;3.70;99.90;;;;;;5055039;28;20407;-20
2023/03/16 04:55:57;;;;;;;6.53;3.40;;;3.70;99.90;;;;;;5054895;28;20037;-20
2023/03/16 04:58:23;;;;;;;8.32;4.03;;;3.70;99.90;;;;;;5056463;28;20491;-20
2023/03/16 05:00:54;;;;;;;7.00;3.60;;;3.70;99.90;;;;;;5055357;28;20106;-20
2023/03/16 05:03:20;;;;;;;8.25;3.28;;;3.70;99.90;;;;;;5055163;28;20514;-20
2023/03/16 05:05:47;;;;;;;5.35;3.33;;;3.70;99.90;;;;;;5054475;28;20045;-20
2023/03/16 05:08:13;;;;;;;8.05;3.55;;;3.70;99.90;;;;;;5055319;28;20387;-20
2023/03/16 05:10:39;;;;;;;7.53;3.05;;;3.70;99.90;;;;;;5055064;28;20044;-20
2023/03/16 05:13:05;;;;;;;6.50;3.60;;;3.70;99.90;;;;;;5055210;28;20099;-20
2023/03/16 05:15:32;;;;;;;6.57;3.20;;;3.70;99.90;;;;;;5057769;28;20499;-20
2023/03/16 05:17:58;;;;;;;8.55;3.58;;;3.60;99.90;;;;;;5057142;28;20053;-20
2023/03/16 05:20:24;;;;;;;6.97;3.30;;;3.60;99.90;;;;;;5056883;28;20051;-20
2023/03/16 05:22:50;;;;;;;8.77;3.43;;;3.70;99.90;;;;;;5054853;28;20052;-20
2023/03/16 05:25:18;;;;;;;8.70;4.03;;;3.60;99.90;;;;;;5055030;28;20483;-20
2023/03/16 05:27:49;;;;;;;6.95;3.38;;;3.60;99.90;;;;;;5055229;28;20056;-20
2023/03/16 05:30:17;;;;;;;7.45;3.80;;;3.60;99.90;;;;;;5054606;28;20494;-20
2023/03/16 05:32:43;;;;;;;7.32;3.30;;;3.60;99.90;;;;;;5056692;28;20049;-20
2023/03/16 05:35:12;;;;;;;10.52;3.40;;;3.60;99.90;;;;;;5054533;28;20045;-20
2023/03/16 05:37:41;;;;;;;7.07;3.63;;;3.60;99.90;;;;;;5054490;28;20560;-20
2023/03/16 05:40:15;;;;;;;8.07;3.50;;;3.60;99.90;;;;;;5054113;28;20047;-20
2023/03/16 05:42:53;;;;;;;9.05;3.50;;;3.60;99.90;;;;;;5055036;28;20071;-20
2023/03/16 05:45:19;;;;;;;12.35;4.38;;;3.60;99.90;;;;;;5054394;28;20059;-20
2023/03/16 05:47:46;;;;;;;8.63;3.50;;;3.60;99.90;;;;;;5057327;28;20048;-20
2023/03/16 05:50:13;;;;;;;7.65;4.20;;;3.70;99.90;;;;;;5054319;28;20045;-20
2023/03/16 05:52:39;;;;;;;9.38;3.72;;;3.80;99.90;;;;;;5053861;28;20494;-20
2023/03/16 05:55:08;;;;;;;9.93;3.70;;;3.80;99.90;;;;;;5054209;28;20048;-20
2023/03/16 05:57:34;;;;;;;7.65;3.75;;;3.80;99.90;;;;;;5054176;28;20124;-20
2023/03/16 06:00:01;;;;;;;7.53;3.80;;;3.80;99.90;;;;;;5054301;28;20036;-20
2023/03/16 06:02:27;;;;;;;7.88;3.90;;;3.80;99.90;;;;;;5070951;28;20127;-20
2023/03/16 06:04:53;;;;;;;8.55;3.95;;;3.70;99.90;;;;;;5056457;28;20048;-20
2023/03/16 06:07:19;;;;;;;11.02;4.47;;;3.80;99.90;;;;;;5063130;28;20056;-20
2023/03/16 06:09:45;;;;;;;7.05;3.72;;;3.80;99.90;;;;;;5052888;28;20510;-20
2023/03/16 06:12:11;;;;;;;10.15;3.83;;;3.80;99.90;;;;;;5053905;28;20057;-20
2023/03/16 06:14:37;;;;;;;9.65;4.35;;;3.80;99.90;;;;;;5053564;28;20044;-20
2023/03/16 06:17:03;;;;;;;5.95;4.30;;;3.80;99.90;;;;;;5053806;28;20037;-20
2023/03/16 06:19:28;;;;;;;6.43;3.63;;;3.80;99.90;;;;;;5056861;28;20086;-20
2023/03/16 06:21:54;;;;;;;8.75;4.32;;;3.80;99.90;;;;;;5056111;28;20045;-18
2023/03/16 06:24:20;;;;;;;9.93;4.07;;;3.80;99.90;;;;;;5056139;28;20199;-19
2023/03/16 06:26:45;;;;;;;9.83;4.77;;;3.80;99.90;;;;;;5054290;28;20059;-19
2023/03/16 06:29:11;;;;;;;10.40;4.13;;;3.90;99.90;;;;;;5052419;28;20516;-19
2023/03/16 06:31:37;;;;;;;11.57;4.33;;;3.80;99.90;;;;;;5057625;28;20131;-19
2023/03/16 06:34:03;;;;;;;13.15;4.45;;;3.90;99.90;;;;;;5053630;28;20051;-19
2023/03/16 06:36:29;;;;;;;8.35;3.65;;;3.90;99.90;;;;;;5052663;28;20049;-19
2023/03/16 06:38:54;;;;;;;8.13;4.25;;;4.00;99.90;;;;;;5053501;28;20053;-19
2023/03/16 06:41:20;;;;;;;7.15;4.30;;;3.90;99.90;;;;;;5053472;28;20041;-19
2023/03/16 06:43:46;;;;;;;7.32;4.25;;;4.00;99.90;;;;;;5053524;28;20055;-19
2023/03/16 06:46:12;;;;;;;7.07;4.22;;;4.00;99.90;;;;;;5052443;28;20490;-19
2023/03/16 06:48:38;;;;;;;8.98;4.65;;;4.00;99.90;;;;;;5069412;28;20055;-19
2023/03/16 06:51:06;;;;;;;10.85;4.75;;;4.10;99.90;;;;;;5074025;28;20055;-19
2023/03/16 06:53:32;;;;;;;8.85;4.35;;;4.10;99.90;;;;;;5076330;28;20086;-19
2023/03/16 06:55:57;;;;;;;10.57;4.40;;;4.10;99.90;;;;;;5077588;28;20049;-19
2023/03/16 06:58:23;;;;;;;9.35;4.57;;;4.20;99.90;;;;;;5075896;28;20072;-19
2023/03/16 07:00:49;;;;;;;10.13;4.72;;;4.20;99.90;;;;;;5051755;28;20491;-19
2023/03/16 07:03:15;;;;;;;7.78;3.60;;;4.20;99.90;;;;;;5077459;28;20048;-19
2023/03/16 07:05:41;;;;;;;8.70;3.88;;;4.30;99.90;;;;;;5077388;28;20385;-19
2023/03/16 07:08:06;;;;;;;6.50;3.45;;;4.30;99.90;;;;;;5077691;28;20059;-19
2023/03/16 07:10:33;;;;;;;7.53;3.83;;;4.30;99.90;;;;;;5077250;28;20044;-19
2023/03/16 07:12:58;;;;;;;5.57;3.13;;;4.40;99.90;;;;;;5076085;28;20052;-19
2023/03/16 07:15:25;;;;;;;7.00;3.70;;;4.40;99.90;;;;;;5058486;28;20032;-19
2023/03/16 07:17:51;;;;;;;9.00;3.60;;;4.50;99.90;;;;;;5076262;28;20405;-19
2023/03/16 07:20:17;;;;;;;7.95;4.18;;;4.50;99.90;;;;;;5060769;28;20407;-19
2023/03/16 07:22:43;;;;;;;7.18;4.22;;;4.50;99.90;;;;;;5057131;28;20045;-19
2023/03/16 07:25:10;;;;;;;8.82;4.32;;;4.50;99.90;;;;;;5057039;28;20049;-19
2023/03/16 07:27:37;;;;;;;7.60;3.58;;;4.60;99.90;;;;;;5060026;28;20049;-19
2023/03/16 07:30:04;;;;;;;6.82;4.25;;;4.60;99.90;;;;;;5058822;28;20060;-19
2023/03/16 07:32:31;;;;;;;8.75;4.15;;;4.60;99.90;;;;;;5075643;28;20410;-19
2023/03/16 07:34:57;;;;;;;9.60;3.67;;;4.60;99.90;;;;;;5077377;28;20098;-19
2023/03/16 07:37:24;;;;;;;6.13;3.55;;;4.70;99.90;;;;;;5076800;28;20379;-19
2023/03/16 07:39:50;;;;;;;6.88;3.75;;;4.70;99.90;;;;;;5076061;28;20044;-19
2023/03/16 07:42:17;;;;;;;11.00;3.97;;;4.70;99.90;;;;;;5076697;28;20094;-19
2023/03/16 07:44:43;;;;;;;9.27;3.72;;;4.70;99.90;;;;;;5070346;28;20045;-19
2023/03/16 07:47:12;;;;;;;9.32;3.70;;;4.70;99.90;;;;;;5075940;28;20049;-19
2023/03/16 07:49:40;;;;;;;10.75;4.30;;;4.80;99.90;;;;;;5076248;28;20044;-19
2023/03/16 07:52:06;;;;;;;11.15;4.25;;;4.90;99.90;;;;;;5074554;28;20485;-19
2023/03/16 07:54:32;;;;;;;7.10;3.65;;;5.10;99.90;;;;;;5060954;28;20055;-19
2023/03/16 07:56:58;;;;;;;7.22;4.30;;;5.10;99.90;;;;;;5058351;28;20052;-19
2023/03/16 07:59:23;;;;;;;7.82;4.07;;;5.10;99.90;;;;;;5058457;28;20049;-18
2023/03/16 08:01:49;;;;;;;7.65;3.50;;;5.10;99.90;;;;;;5056263;28;20056;-19
2023/03/16 08:04:15;;;;;;;8.98;4.13;;;5.10;99.90;;;;;;5056145;28;20053;-18
2023/03/16 08:06:41;;;;;;;9.50;3.85;;;5.00;99.90;;;;;;5056282;28;20036;-19
2023/03/16 08:09:07;;;;;;;7.38;2.80;;;5.00;99.90;;;;;;5060146;28;20143;-19
2023/03/16 08:11:33;;;;;;;7.60;3.38;;;5.00;99.90;;;;;;5057368;28;20045;-18
2023/03/16 08:13:58;;;;;;;7.03;3.85;;;4.90;99.90;;;;;;5057457;28;20048;-18
2023/03/16 08:16:26;;;;;;;10.38;4.22;;;4.90;99.90;;;;;;5055693;28;20153;-18
2023/03/16 08:18:54;;;;;;;8.07;3.90;;;4.90;99.90;;;;;;5055972;28;20448;-18
2023/03/16 08:21:21;;;;;;;8.13;4.20;;;4.90;99.90;;;;;;5058996;28;20045;-18
2023/03/16 08:23:50;;;;;;;8.52;4.10;;;4.80;99.90;;;;;;5054987;28;20084;-18
2023/03/16 08:26:17;;;;;;;6.18;3.42;;;4.90;99.90;;;;;;5056833;28;20052;-18
2023/03/16 08:28:45;;;;;;;7.35;3.75;;;4.80;99.90;;;;;;5055567;28;20045;-19
2023/03/16 08:31:12;;;;;;;6.97;4.03;;;4.90;99.90;;;;;;5056103;28;20053;-19
2023/03/16 08:33:42;;;;;;;6.15;3.45;;;4.90;99.90;;;;;;5055740;28;20056;-19
2023/03/16 08:36:10;;;;;;;7.57;3.50;;;4.90;99.90;;;;;;5055681;28;20052;-19
2023/03/16 08:38:38;;;;;;;7.80;3.90;;;4.90;99.90;;;;;;5056471;28;20129;-18
2023/03/16 08:41:04;;;;;;;7.88;3.70;;;4.80;99.90;;;;;;5054796;28;20080;-18
2023/03/16 08:43:31;;;;;;;8.23;3.97;;;4.90;99.90;;;;;;5058070;28;20120;-19
2023/03/16 08:45:58;;;;;;;7.72;3.90;;;4.90;99.90;;;;;;5055543;28;20501;-19
2023/03/16 08:48:24;;;;;;;5.38;3.63;;;4.90;99.90;;;;;;5056015;28;20057;-18
2023/03/16 08:50:52;;;;;;;8.05;4.32;;;4.90;99.90;;;;;;5057089;28;20084;-18
2023/03/16 08:53:19;;;;;;;7.45;3.70;;;5.00;99.90;;;;;;5058026;28;20045;-18
2023/03/16 08:55:46;;;;;;;9.50;4.40;;;5.00;99.90;;;;;;5055133;28;20049;-18
2023/03/16 08:58:12;;;;;;;7.43;3.90;;;5.00;99.90;;;;;;5057239;28;20049;-18
2023/03/16 09:00:39;;;;;;;10.60;4.25;;;5.10;99.90;;;;;;5054092;28;20045;-18
2023/03/16 09:03:05;;;;;;;8.27;3.38;;;5.10;99.90;;;;;;5054301;28;20071;-19
2023/03/16 09:05:31;;;;;;;9.32;4.18;;;5.00;99.90;;;;;;5054455;28;20188;-18
2023/03/16 09:07:58;;;;;;;7.85;4.43;;;5.00;99.90;;;;;;5055087;28;20041;-18
2023/03/16 09:10:26;;;;;;;8.30;4.32;;;5.00;99.90;;;;;;5041883;28;20501;-18
2023/03/16 09:12:52;;;;;;;8.00;4.22;;;5.00;99.90;;;;;;5074943;28;20056;-18
2023/03/16 09:15:20;;;;;;;8.85;4.65;;;5.00;99.90;;;;;;5074379;28;20055;-18
2023/03/16 09:17:46;;;;;;;9.43;4.35;;;4.90;99.90;;;;;;5061629;28;20106;-18
2023/03/16 09:20:14;;;;;;;8.90;4.20;;;4.90;99.90;;;;;;5054764;28;20080;-18
2023/03/16 09:22:40;;;;;;;10.95;4.70;;;4.90;99.90;;;;;;5037252;28;20056;-18
2023/03/16 09:25:09;;;;;;;6.28;4.45;;;4.90;99.90;;;;;;5054785;28;20084;-18
2023/03/16 09:27:36;;;;;;;9.75;4.85;;;4.90;99.90;;;;;;5054763;28;20051;-18
2023/03/16 09:30:04;;;;;;;10.00;4.43;;;5.00;99.90;;;;;;5036629;28;20072;-19
2023/03/16 09:32:32;;;;;;;8.30;4.00;;;5.00;99.90;;;;;;5056051;28;20056;-18
2023/03/16 09:34:58;;;;;;;10.63;4.78;;;5.00;99.90;;;;;;5054583;28;20084;-18
2023/03/16 09:37:25;;;;;;;8.52;4.80;;;5.10;99.90;;;;;;5054813;28;20080;-18
2023/03/16 09:39:51;;;;;;;8.18;4.45;;;5.20;99.90;;;;;;5057545;28;20088;-18
2023/03/16 09:42:46;;;;;;;9.02;4.30;;;5.30;99.90;;;;;;5054059;28;20041;-18
2023/03/16 09:45:34;;;;;;;8.55;4.50;;;5.40;99.90;;;;;;5053980;28;20072;-18
2023/03/16 09:48:03;;;;;;;8.15;4.57;;;5.50;99.90;;;;;;5056468;28;20044;-18
2023/03/16 09:50:35;;;;;;;8.88;4.60;;;5.60;99.90;;;;;;5053040;28;20053;-18
2023/03/16 09:53:05;;;;;;;6.47;4.70;;;5.70;99.90;;;;;;5054853;28;20395;-19
2023/03/16 09:55:33;;;;;;;9.98;5.07;;;5.70;99.90;;;;;;5055197;28;20403;-18
2023/03/16 09:58:03;;;;;;;7.65;4.10;;;5.70;99.90;;;;;;5061139;28;20045;-18
2023/03/16 10:00:47;;;;;;;8.88;5.13;;;5.70;99.90;;;;;;5068838;28;20087;-18
2023/03/16 10:03:55;;;;;;;7.57;4.75;;;5.60;99.90;;;;;;5074132;28;20040;-18
2023/03/16 10:06:22;;;;;;;9.40;3.78;;;5.50;99.90;;;;;;5073899;28;20052;-18
2023/03/16 10:09:01;;;;;;;7.20;4.88;;;5.50;99.90;;;;;;5073997;28;20048;-18
2023/03/16 10:11:32;;;;;;;10.73;4.25;;;5.70;99.90;;;;;;5074418;28;20044;-18
2023/03/16 10:14:39;;;;;;;9.13;4.85;;;5.80;99.90;;;;;;5073318;28;20062;-18
2023/03/16 10:17:20;;;;;;;8.93;5.15;;;5.80;99.90;;;;;;5071554;28;20049;-18
2023/03/16 10:19:53;;;;;;;8.55;4.65;;;5.80;99.90;;;;;;5071440;28;20099;-18
2023/03/16 10:22:34;;;;;;;12.00;4.70;;;5.70;99.90;;;;;;5064489;28;20126;-19
2023/03/16 10:25:24;;;;;;;7.80;4.57;;;5.70;99.90;;;;;;5073768;28;20528;-19
2023/03/16 10:27:51;;;;;;;8.50;4.15;;;5.60;99.90;;;;;;5073753;28;20059;-19
2023/03/16 10:30:32;;;;;;;6.70;4.18;;;5.60;99.90;;;;;;5073594;28;20061;-19
2023/03/16 10:33:08;;;;;;;5.97;3.88;;;5.50;99.90;;;;;;5073757;28;20052;-18
2023/03/16 10:35:47;;;;;;;10.45;4.70;;;5.50;99.90;;;;;;5074310;28;20071;-19
2023/03/16 10:38:45;;;;;;;8.25;4.60;;;5.40;99.90;;;;;;5073360;28;20445;-19
2023/03/16 10:41:16;;;;;;;8.05;4.93;;;5.30;99.90;;;;;;5074373;28;20079;-19
2023/03/16 10:43:57;;;;;;;8.43;4.63;;;5.30;99.90;;;;;;5073577;28;20402;-19
2023/03/16 10:46:27;;;;;;;8.60;4.53;;;5.30;99.90;;;;;;5074166;28;20098;-19
2023/03/16 10:48:58;;;;;;;6.93;4.13;;;5.20;99.90;;;;;;5072835;28;20044;-19
2023/03/16 10:51:36;;;;;;;7.47;4.80;;;5.30;99.90;;;;;;5074149;28;20037;-19
2023/03/16 10:54:18;;;;;;;10.68;4.35;;;5.30;99.90;;;;;;5073778;28;20044;-19
2023/03/16 10:56:44;;;;;;;8.10;4.95;;;5.40;99.90;;;;;;5073337;28;20098;-19
2023/03/16 10:59:35;;;;;;;9.95;4.50;;;5.40;99.90;;;;;;5072234;28;20055;-19
2023/03/16 11:02:16;;;;;;;9.15;3.55;;;5.50;99.90;;;;;;5074079;28;20051;-19
2023/03/16 11:04:42;;;;;;;10.80;4.45;;;5.50;99.90;;;;;;5073962;28;20049;-20
2023/03/16 11:07:15;;;;;;;10.05;4.55;;;5.50;99.90;;;;;;5073220;28;20044;-19
2023/03/16 11:09:40;;;;;;;12.13;4.43;;;5.50;99.90;;;;;;5073918;28;20080;-20
2023/03/16 11:12:20;;;;;;;10.95;4.30;;;5.60;99.90;;;;;;5073319;28;20129;-20
2023/03/16 11:14:47;;;;;;;6.45;4.10;;;5.80;99.90;;;;;;5072057;28;20053;-19
2023/03/16 11:17:35;;;;;;;6.25;3.88;;;5.90;99.90;;;;;;5073237;28;20052;-20
2023/03/16 11:20:11;;;;;;;6.68;3.83;;;6.10;99.90;;;;;;5072514;28;20045;-20
2023/03/16 11:22:38;;;;;;;8.85;4.10;;;6.30;99.90;;;;;;5074068;28;20048;-20
2023/03/16 11:25:17;;;;;;;10.27;3.63;;;6.60;99.90;;;;;;5073174;28;20051;-20
2023/03/16 11:27:51;;;;;;;6.13;3.60;;;6.80;99.90;;;;;;5072628;28;20048;-20
2023/03/16 11:31:00;;;;;;;8.20;4.13;;;6.90;99.90;;;;;;5071849;28;20053;-20
2023/03/16 11:33:29;;;;;;;6.45;3.38;;;7.00;99.90;;;;;;5072482;28;20099;-20
2023/03/16 11:35:58;;;;;;;6.65;3.35;;;6.90;99.90;;;;;;5072934;28;20049;-20
2023/03/16 11:38:52;;;;;;;7.97;5.03;;;7.00;99.90;;;;;;5074447;28;20075;-20
2023/03/16 11:41:31;;;;;;;8.45;4.20;;;7.00;99.90;;;;;;5077269;28;20086;-20
2023/03/16 11:44:12;;;;;;;7.18;2.83;;;7.10;99.90;;;;;;5076847;28;20044;-20
2023/03/16 11:47:00;;;;;;;6.85;3.65;;;7.10;99.90;;;;;;5077032;28;20040;-19
2023/03/16 11:49:43;;;;;;;6.13;3.33;;;7.10;99.90;;;;;;5076625;28;20049;-20
2023/03/16 11:52:19;;;;;;;6.25;3.00;;;7.20;99.90;;;;;;5076810;28;20049;-20
2023/03/16 11:55:21;;;;;;;6.18;3.20;;;7.20;99.90;;;;;;5075594;28;20048;-20
2023/03/16 11:57:52;;;;;;;7.60;3.17;;;7.30;99.90;;;;;;5076499;28;20051;-19
2023/03/16 12:00:32;;;;;;;12.65;3.80;;;7.30;99.90;;;;;;5077187;28;20041;-19
2023/03/16 12:03:10;;;;;;;5.00;3.03;;;7.50;99.90;;;;;;5076467;28;20048;-19
2023/03/16 12:05:41;;;;;;;4.50;3.13;;;7.60;99.90;;;;;;5058964;28;20055;-20
2023/03/16 12:08:24;;;;;;;6.00;3.20;;;7.80;99.90;;;;;;5077162;28;20123;-20
2023/03/16 12:11:03;;;;;;;4.70;3.20;;;8.00;99.90;;;;;;5077105;28;20080;-20
2023/03/16 12:13:47;;;;;;;6.88;3.22;;;8.20;99.90;;;;;;5076270;28;20044;-20
2023/03/16 12:16:20;;;;;;;6.75;2.92;;;8.40;99.90;;;;;;5075495;28;20105;-20
2023/03/16 12:18:58;;;;;;;8.02;2.85;;;8.50;99.90;;;;;;5076125;28;20048;-20
2023/03/16 12:21:31;;;;;;;7.07;2.80;;;8.70;99.90;;;;;;5075962;28;20070;-20
2023/03/16 12:24:03;;;;;;;6.05;2.50;;;8.70;99.90;;;;;;5076033;28;20044;-20
2023/03/16 12:26:37;;;;;;;5.18;2.67;;;8.80;99.90;;;;;;5075933;28;20375;-20
2023/03/16 12:29:40;;;;;;;6.32;2.30;;;8.90;99.90;;;;;;5076144;28;20483;-20
2023/03/16 12:32:12;;;;;;;10.43;3.95;;;9.10;99.90;;;;;;5075256;28;20059;-20
2023/03/16 12:34:40;;;;;;;8.18;3.15;;;9.10;99.90;;;;;;5076674;28;20044;-20
2023/03/16 12:37:16;;;;;;;5.82;3.50;;;9.20;99.90;;;;;;5076307;28;20052;-20
2023/03/16 12:40:08;;;;;;;7.40;3.05;;;9.30;99.90;;;;;;5075673;28;20131;-20
2023/03/16 12:42:45;;;;;;;5.97;3.60;;;9.20;99.90;;;;;;5075713;28;20123;-20
2023/03/16 12:45:36;;;;;;;7.95;3.13;;;9.20;99.90;;;;;;5075936;28;20186;-20
2023/03/16 12:48:14;;;;;;;7.93;5.13;;;9.20;99.90;;;;;;5075875;28;20048;-20
2023/03/16 12:50:56;;;;;;;9.90;4.60;;;9.20;99.90;;;;;;5073349;28;20052;-20
2023/03/16 12:53:41;;;;;;;4.97;3.40;;;9.20;99.90;;;;;;5076066;28;20109;-19
2023/03/16 12:56:18;;;;;;;9.07;5.18;;;9.20;99.90;;;;;;5075126;28;20044;-20
2023/03/16 12:58:49;;;;;;;12.13;10.82;;;9.00;99.90;;;;;;5075921;28;20055;-20
2023/03/16 13:01:19;;;;;;;4.93;3.10;;;8.80;99.90;;;;;;5075863;28;20040;-20
2023/03/16 13:03:49;;;;;;;6.30;2.83;;;8.90;99.90;;;;;;5075268;28;20127;-20
2023/03/16 13:06:22;;;;;;;5.75;2.92;;;8.80;99.90;;;;;;5074238;28;20478;-20
2023/03/16 13:08:58;;;;;;;5.28;2.83;;;8.80;99.90;;;;;;5074824;28;20383;-20
2023/03/16 13:11:25;;;;;;;7.15;3.08;;;8.80;99.90;;;;;;5074265;28;20060;-20